Time;durP1;ratioP1;P1;durP2;ratioP2;P2;SDS_P1;SDS_P2;PMS_P1;PMS_P2;Temp;Humidity;BMP_temperature;BMP_pressure;BME280_temperature;BME280_humidity;BME280_pressure;Samples;Min_cycle;Max_cycle;Signal;HPM_P1;HPM_P2
2023/04/07 00:02:24;;;;;;;32.78;16.83;;;;;;;9.82;87.69;101366.84;5073197;28;20040;-92
2023/04/07 00:04:49;;;;;;;31.25;16.02;;;;;;;9.82;87.10;101365.06;5082814;28;20020;-90
2023/04/07 00:07:15;;;;;;;31.77;15.93;;;;;;;9.76;87.36;101359.09;5082493;28;20036;-90
2023/04/07 00:09:40;;;;;;;32.17;15.48;;;;;;;9.83;87.13;101365.94;5077001;28;20032;-90
2023/04/07 00:12:05;;;;;;;31.85;15.40;;;;;;;9.78;87.29;101355.50;5074129;28;20049;-90
2023/04/07 00:14:31;;;;;;;28.83;15.02;;;;;;;9.75;86.72;101352.97;5081623;28;20027;-90
2023/04/07 00:16:56;;;;;;;30.95;15.93;;;;;;;9.74;87.38;101359.13;5080409;28;20482;-90
2023/04/07 00:19:21;;;;;;;27.52;15.82;;;;;;;9.73;86.97;101361.81;5082693;28;20108;-90
2023/04/07 00:21:46;;;;;;;29.63;15.27;;;;;;;9.75;86.91;101379.38;5084978;28;20040;-90
2023/04/07 00:24:12;;;;;;;23.75;15.15;;;;;;;9.70;86.68;101368.94;5091429;28;20037;-90
2023/04/07 00:26:37;;;;;;;24.67;14.80;;;;;;;9.73;86.36;101372.38;5089436;28;20044;-91
2023/04/07 00:29:02;;;;;;;25.55;15.25;;;;;;;9.71;86.24;101372.44;5074399;28;20112;-90
2023/04/07 00:31:28;;;;;;;21.55;13.50;;;;;;;9.71;86.10;101373.31;5080568;28;20029;-90
2023/04/07 00:33:54;;;;;;;23.00;14.00;;;;;;;9.66;85.47;101363.78;5092932;28;20100;-90
2023/04/07 00:36:19;;;;;;;22.73;12.65;;;;;;;9.63;85.62;101370.00;5085891;28;20055;-89
2023/04/07 00:38:45;;;;;;;21.75;13.35;;;;;;;9.63;85.64;101372.63;5075026;28;20028;-90
2023/04/07 00:41:10;;;;;;;23.70;11.63;;;;;;;9.64;85.31;101373.50;5079024;28;20027;-91
2023/04/07 00:43:35;;;;;;;20.73;12.20;;;;;;;9.60;85.05;101361.28;5082012;28;20028;-91
2023/04/07 00:46:01;;;;;;;21.27;11.50;;;;;;;9.60;85.07;101369.22;5072995;28;20502;-90
2023/04/07 00:48:26;;;;;;;18.88;10.13;;;;;;;9.58;84.95;101363.97;5087826;28;20387;-90
2023/04/07 00:50:52;;;;;;;14.95;9.30;;;;;;;9.59;84.53;101367.50;5087132;28;20111;-91
2023/04/07 00:53:18;;;;;;;18.85;10.32;;;;;;;9.53;85.08;101365.03;5085995;28;20028;-91
2023/04/07 00:55:44;;;;;;;15.48;10.90;;;;;;;9.50;84.61;101362.47;5071656;28;20253;-90
2023/04/07 00:58:09;;;;;;;17.25;10.15;;;;;;;9.52;84.17;101365.94;5085399;28;20024;-90
2023/04/07 01:00:42;;;;;;;20.98;10.38;;;;;;;9.57;85.01;101372.81;5075721;28;20077;-91
2023/04/07 01:03:12;;;;;;;18.23;10.80;;;;;;;9.52;84.62;101355.38;5073816;28;20074;-91
2023/04/07 01:05:45;;;;;;;19.38;11.75;;;;;;;9.52;84.79;101356.25;5072893;28;20475;-90
2023/04/07 01:08:22;;;;;;;21.58;11.80;;;;;;;9.51;84.75;101357.13;5071293;28;20107;-90
2023/04/07 01:10:55;;;;;;;20.38;11.38;;;;;;;9.54;84.72;101369.38;5077754;28;20053;-90
2023/04/07 01:13:42;;;;;;;18.08;10.73;;;;;;;9.44;84.50;101358.22;5074946;28;20032;-90
2023/04/07 01:16:12;;;;;;;20.45;10.95;;;;;;;9.49;84.62;101366.88;5091094;28;20512;-90
2023/04/07 01:18:39;;;;;;;13.90;10.13;;;;;;;9.45;84.39;101360.81;5075105;28;20024;-90
2023/04/07 01:21:15;;;;;;;16.83;10.10;;;;;;;9.49;84.49;101361.59;5081872;28;20032;-90
2023/04/07 01:23:50;;;;;;;16.40;9.93;;;;;;;9.47;84.41;101370.47;5082849;28;20024;-91
2023/04/07 01:26:25;;;;;;;18.30;10.73;;;;;;;9.44;84.58;101368.78;5085107;28;20077;-91
2023/04/07 01:29:30;;;;;;;18.23;9.70;;;;;;;9.49;84.40;101377.44;5082645;28;20039;-91
2023/04/07 01:31:58;;;;;;;17.88;10.02;;;;;;;9.42;84.46;101374.09;5078347;28;20028;-91
2023/04/07 01:34:25;;;;;;;18.92;10.07;;;;;;;9.40;83.92;101378.53;5081549;28;20032;-91
2023/04/07 01:36:51;;;;;;;12.55;8.25;;;;;;;9.40;84.42;101373.25;5087687;28;20436;-90
2023/04/07 01:39:18;;;;;;;12.75;8.10;;;;;;;9.39;84.19;101375.94;5080954;28;20028;-91
2023/04/07 01:41:44;;;;;;;13.13;7.60;;;;;;;9.38;83.82;101376.88;5071910;28;20027;-90
2023/04/07 01:44:10;;;;;;;17.30;7.80;;;;;;;9.38;83.78;101374.22;5071508;28;20448;-90
2023/04/07 01:46:35;;;;;;;12.02;6.43;;;;;;;9.36;83.45;101373.38;5073509;28;20414;-91
2023/04/07 01:49:03;;;;;;;11.02;7.18;;;;;;;9.37;83.66;101383.03;5085777;28;20028;-89
2023/04/07 01:51:29;;;;;;;12.73;6.50;;;;;;;9.35;84.15;101380.44;5073361;28;20055;-90
2023/04/07 01:53:56;;;;;;;12.40;6.80;;;;;;;9.38;83.88;101387.41;5085374;28;20025;-90
2023/04/07 01:56:21;;;;;;;10.65;6.72;;;;;;;9.34;83.64;101393.69;5070036;28;20468;-90
2023/04/07 01:58:47;;;;;;;10.02;5.93;;;;;;;9.32;83.44;101391.06;5069559;28;20102;-90
2023/04/07 02:01:13;;;;;;;11.73;5.57;;;;;;;9.36;83.18;101403.28;5075446;28;20027;-90
2023/04/07 02:03:52;;;;;;;10.85;5.55;;;;;;;9.36;83.05;101412.97;5085855;28;20032;-90
2023/04/07 02:06:21;;;;;;;11.35;4.80;;;;;;;9.27;83.05;101398.22;5092285;28;20029;-91
2023/04/07 02:08:55;;;;;;;11.07;5.40;;;;;;;9.27;83.20;101406.16;5075352;28;20395;-90
2023/04/07 02:11:22;;;;;;;11.75;5.57;;;;;;;9.26;83.29;101401.78;5082183;28;20122;-91
2023/04/07 02:13:50;;;;;;;11.40;5.85;;;;;;;9.28;83.34;101407.00;5078612;28;20174;-90
2023/04/07 02:16:16;;;;;;;10.38;5.55;;;;;;;9.23;83.06;101391.31;5084536;28;20044;-90
2023/04/07 02:18:43;;;;;;;10.75;5.78;;;;;;;9.22;83.46;101400.13;5086754;28;20032;-90
2023/04/07 02:21:10;;;;;;;9.27;5.15;;;;;;;9.19;82.55;101389.69;5082910;28;20350;-90
2023/04/07 02:23:36;;;;;;;11.13;4.88;;;;;;;9.21;82.71;101398.41;5090759;28;20043;-91
2023/04/07 02:26:01;;;;;;;10.18;5.55;;;;;;;9.28;82.80;101400.00;5098136;28;20024;-90
2023/04/07 02:28:26;;;;;;;8.45;4.90;;;;;;;9.22;83.17;101400.13;5087203;28;20103;-91
2023/04/07 02:30:51;;;;;;;9.30;5.13;;;;;;;9.26;83.06;101395.66;5090048;28;20066;-91
2023/04/07 02:33:17;;;;;;;11.45;5.28;;;;;;;9.23;82.71;101391.31;5093078;28;20055;-90
2023/04/07 02:35:42;;;;;;;7.50;5.22;;;;;;;9.27;82.80;101397.38;5091290;28;20020;-91
2023/04/07 02:38:07;;;;;;;13.55;5.13;;;;;;;9.20;83.24;101391.41;5086346;28;21304;-91
2023/04/07 02:40:33;;;;;;;11.15;5.07;;;;;;;9.23;83.32;101398.34;5090203;28;20027;-90
2023/04/07 02:42:58;;;;;;;10.13;5.30;;;;;;;9.16;83.01;101385.34;5088639;28;20383;-91
2023/04/07 02:45:23;;;;;;;13.07;5.20;;;;;;;9.20;83.32;101396.69;5089929;28;20028;-89
2023/04/07 02:47:49;;;;;;;8.70;5.55;;;;;;;9.16;83.05;101395.88;5080951;28;20024;-91
2023/04/07 02:50:14;;;;;;;8.40;4.93;;;;;;;9.22;83.05;101399.25;5089690;28;20106;-91
2023/04/07 02:52:40;;;;;;;9.93;4.82;;;;;;;9.19;83.00;101400.22;5092204;28;20027;-90
2023/04/07 02:55:06;;;;;;;7.38;4.40;;;;;;;9.23;83.32;101401.00;5085348;28;20028;-90
2023/04/07 02:57:31;;;;;;;11.00;5.00;;;;;;;9.20;83.01;101392.25;5088878;28;20403;-90
2023/04/07 02:59:57;;;;;;;14.35;6.03;;;;;;;9.18;83.46;101388.78;5097398;28;20869;-90
2023/04/07 03:02:23;;;;;;;11.02;5.25;;;;;;;9.23;83.29;101406.25;5085451;28;20048;-90
2023/04/07 03:04:50;;;;;;;10.68;5.18;;;;;;;9.21;83.23;101401.03;5081795;28;20027;-90
2023/04/07 03:07:15;;;;;;;13.15;5.00;;;;;;;9.16;82.71;101395.03;5071363;28;20043;-90
2023/04/07 03:09:41;;;;;;;10.82;5.35;;;;;;;9.17;82.86;101397.59;5082035;28;20020;-90
2023/04/07 03:12:06;;;;;;;11.35;5.40;;;;;;;9.20;82.85;101397.53;5087056;28;20048;-91
2023/04/07 03:14:31;;;;;;;9.25;4.93;;;;;;;9.20;83.04;101397.53;5098732;27;20035;-91
2023/04/07 03:16:57;;;;;;;8.27;4.82;;;;;;;9.22;83.10;101399.25;5093734;28;20237;-89
2023/04/07 03:19:22;;;;;;;10.93;4.95;;;;;;;9.22;83.10;101400.13;5102024;28;20555;-90
2023/04/07 03:21:47;;;;;;;13.40;5.43;;;;;;;9.22;83.53;101400.13;5087381;28;20036;-91
2023/04/07 03:24:12;;;;;;;9.30;5.28;;;;;;;9.24;82.66;101405.38;5080645;28;20138;-90
2023/04/07 03:26:38;;;;;;;10.40;4.97;;;;;;;9.18;82.74;101399.34;5086490;28;20021;-90
2023/04/07 03:29:03;;;;;;;8.98;4.43;;;;;;;9.25;82.73;101405.34;5090685;28;20491;-89
2023/04/07 03:31:29;;;;;;;8.30;4.85;;;;;;;9.16;82.66;101392.38;5079820;28;20020;-90
2023/04/07 03:33:54;;;;;;;8.80;4.55;;;;;;;9.18;83.02;101399.34;5092895;28;20076;-91
2023/04/07 03:36:20;;;;;;;10.00;4.80;;;;;;;9.23;83.03;101411.53;5071821;28;20073;-89
2023/04/07 03:38:48;;;;;;;10.50;4.40;;;;;;;9.15;83.02;101394.16;5082142;28;20020;-91
2023/04/07 03:41:14;;;;;;;6.85;4.90;;;;;;;9.20;82.72;101408.09;5095977;27;20498;-89
2023/04/07 03:43:40;;;;;;;8.00;4.72;;;;;;;9.14;83.31;101407.41;5078981;28;20032;-90
2023/04/07 03:46:05;;;;;;;10.07;5.28;;;;;;;9.12;83.07;101399.50;5072570;28;20536;-90
2023/04/07 03:48:31;;;;;;;9.93;5.07;;;;;;;9.10;83.56;101406.59;5071843;28;20051;-89
2023/04/07 03:50:56;;;;;;;9.77;5.60;;;;;;;9.12;83.22;101410.03;5086195;28;20035;-90
2023/04/07 03:53:21;;;;;;;10.65;6.30;;;;;;;9.09;83.61;101406.63;5071002;28;20024;-90
2023/04/07 03:55:47;;;;;;;10.65;6.15;;;;;;;9.12;83.33;101415.31;5077372;28;20047;-90
2023/04/07 03:58:12;;;;;;;14.50;6.65;;;;;;;9.12;83.93;101417.09;5074735;28;20098;-89
2023/04/07 04:00:38;;;;;;;13.80;7.20;;;;;;;9.04;83.72;101406.72;5074138;28;20032;-89
2023/04/07 04:03:03;;;;;;;10.55;7.13;;;;;;;9.08;83.85;101411.03;5087846;28;20044;-89
2023/04/07 04:05:28;;;;;;;13.20;7.65;;;;;;;9.07;83.87;101400.53;5076684;28;20023;-90
2023/04/07 04:07:54;;;;;;;16.42;8.73;;;;;;;9.08;84.28;101415.44;5082650;28;20036;-89
2023/04/07 04:10:19;;;;;;;18.67;8.73;;;;;;;9.00;84.65;101409.47;5076411;28;20032;-90
2023/04/07 04:12:46;;;;;;;15.85;8.55;;;;;;;9.10;84.13;101418.94;5086902;28;20027;-90
2023/04/07 04:15:11;;;;;;;17.38;8.77;;;;;;;9.07;84.07;101417.22;5082800;28;20104;-90
2023/04/07 04:17:37;;;;;;;15.85;9.05;;;;;;;9.06;83.86;101407.56;5091224;28;20189;-90
2023/04/07 04:20:02;;;;;;;18.33;9.27;;;;;;;9.03;84.13;101406.78;5088616;28;20107;-90
2023/04/07 04:22:28;;;;;;;20.42;9.20;;;;;;;9.01;84.00;101414.72;5087389;28;20039;-91
2023/04/07 04:24:53;;;;;;;19.35;8.75;;;;;;;8.98;83.74;101412.16;5087327;28;20024;-90
2023/04/07 04:27:18;;;;;;;18.33;9.68;;;;;;;8.96;83.96;101413.13;5087477;28;20493;-89
2023/04/07 04:29:43;;;;;;;17.63;9.40;;;;;;;8.87;84.14;101406.28;5089477;28;20528;-90
2023/04/07 04:32:09;;;;;;;22.33;9.10;;;;;;;8.86;84.32;101417.72;5086586;28;20027;-89
2023/04/07 04:34:34;;;;;;;17.98;9.23;;;;;;;8.80;84.20;101423.16;5095903;28;20030;-91
2023/04/07 04:36:59;;;;;;;21.30;9.82;;;;;;;8.71;84.50;101412.81;5085158;28;20024;-90
2023/04/07 04:39:25;;;;;;;20.60;9.15;;;;;;;8.72;84.33;101425.09;5076292;28;20020;-90
2023/04/07 04:41:50;;;;;;;17.83;8.73;;;;;;;8.71;84.68;101424.22;5087328;28;20032;-90
2023/04/07 04:44:15;;;;;;;17.00;8.30;;;;;;;8.60;84.28;101419.22;5079991;28;20456;-90
2023/04/07 04:46:41;;;;;;;20.33;8.23;;;;;;;8.52;84.32;101409.75;5096563;28;20028;-89
2023/04/07 04:49:06;;;;;;;18.95;8.77;;;;;;;8.61;84.25;101434.13;5077579;28;20031;-90
2023/04/07 04:51:31;;;;;;;16.85;9.85;;;;;;;8.52;84.61;101423.78;5076792;28;20032;-90
2023/04/07 04:53:57;;;;;;;24.40;8.82;;;;;;;8.50;84.64;101430.00;5079673;28;20044;-90
2023/04/07 04:56:22;;;;;;;19.30;8.68;;;;;;;8.51;84.90;101439.63;5078054;28;20076;-90
2023/04/07 04:58:47;;;;;;;18.98;8.45;;;;;;;8.52;85.12;101447.50;5087700;28;20037;-90
2023/04/07 05:01:13;;;;;;;21.55;8.98;;;;;;;8.51;85.16;101440.50;5077049;28;20032;-90
2023/04/07 05:03:38;;;;;;;19.83;8.93;;;;;;;8.52;84.84;101444.84;5093568;28;20387;-90
2023/04/07 05:06:04;;;;;;;16.73;9.60;;;;;;;8.52;84.97;101442.22;5101584;28;20016;-90
2023/04/07 05:08:30;;;;;;;18.42;7.95;;;;;;;8.57;85.34;101447.38;5071000;28;20034;-89
2023/04/07 05:10:55;;;;;;;21.33;9.05;;;;;;;8.63;85.16;101455.19;5093569;28;20044;-90
2023/04/07 05:13:21;;;;;;;19.95;9.15;;;;;;;8.59;84.90;101446.47;5083527;28;20488;-91
2023/04/07 05:15:46;;;;;;;18.45;8.82;;;;;;;8.67;85.09;101459.47;5071449;28;20115;-89
2023/04/07 05:18:11;;;;;;;19.88;8.85;;;;;;;8.68;85.18;101450.69;5095960;28;20483;-90
2023/04/07 05:20:37;;;;;;;19.02;8.07;;;;;;;8.72;85.36;101456.72;5077398;28;20112;-90
2023/04/07 05:23:03;;;;;;;22.23;8.38;;;;;;;8.72;84.93;101462.88;5083146;28;20073;-89
2023/04/07 05:25:28;;;;;;;22.13;9.65;;;;;;;8.75;85.01;101461.94;5087793;28;20027;-89
2023/04/07 05:27:53;;;;;;;22.67;7.93;;;;;;;8.80;84.64;101467.97;5086571;28;20572;-89
2023/04/07 05:30:19;;;;;;;22.63;10.65;;;;;;;8.81;84.47;101473.22;5082961;28;20447;-90
2023/04/07 05:32:44;;;;;;;22.55;9.02;;;;;;;8.78;84.59;101462.75;5081104;28;20032;-90
2023/04/07 05:35:10;;;;;;;19.88;9.40;;;;;;;8.83;84.80;101471.41;5078955;28;20062;-90
2023/04/07 05:37:35;;;;;;;17.25;8.43;;;;;;;8.84;85.18;101469.63;5081610;28;20044;-89
2023/04/07 05:40:00;;;;;;;21.35;8.88;;;;;;;8.84;84.92;101469.63;5075652;28;20493;-89
2023/04/07 05:42:26;;;;;;;19.38;8.63;;;;;;;8.78;85.07;101460.09;5088839;28;20026;-90
2023/04/07 05:44:51;;;;;;;20.58;8.60;;;;;;;8.86;84.83;101470.44;5085543;28;20028;-89
2023/04/07 05:47:16;;;;;;;24.45;8.38;;;;;;;8.91;84.86;101471.25;5090628;28;20105;-89
2023/04/07 05:49:45;;;;;;;25.65;9.25;;;;;;;8.88;84.30;101468.66;5068632;28;20028;-90
2023/04/07 05:52:13;;;;;;;21.55;9.30;;;;;;;8.94;84.55;101474.66;5079363;28;20391;-88
2023/04/07 05:54:41;;;;;;;18.42;9.05;;;;;;;8.99;84.88;101476.31;5081062;28;20487;-90
2023/04/07 05:57:07;;;;;;;21.27;9.20;;;;;;;8.96;84.40;101473.78;5071862;28;20044;-90
2023/04/07 05:59:33;;;;;;;17.75;8.63;;;;;;;9.06;84.47;101486.69;5084010;28;20168;-90
2023/04/07 06:01:58;;;;;;;21.30;8.73;;;;;;;9.06;84.73;101485.84;5083920;28;20600;-90
2023/04/07 06:04:24;;;;;;;16.30;9.45;;;;;;;9.06;84.38;101484.06;5087693;28;20031;-91
2023/04/07 06:06:51;;;;;;;21.30;9.07;;;;;;;9.10;84.86;101495.41;5083602;28;20020;-90
2023/04/07 06:09:16;;;;;;;23.77;9.43;;;;;;;9.06;85.04;101484.06;5086388;28;20028;-90
2023/04/07 06:11:42;;;;;;;27.58;10.45;;;;;;;9.14;84.59;101491.81;5086380;28;20098;-90
2023/04/07 06:14:07;;;;;;;23.45;9.95;;;;;;;9.10;85.08;101480.44;5081280;28;20020;-90
2023/04/07 06:16:32;;;;;;;27.90;10.82;;;;;;;9.18;84.57;101490.81;5083984;28;20497;-90
2023/04/07 06:18:57;;;;;;;22.40;11.82;;;;;;;9.20;84.67;101496.94;5085273;28;20036;-90
2023/04/07 06:21:24;;;;;;;23.27;10.07;;;;;;;9.22;84.71;101500.38;5087258;28;20028;-90
2023/04/07 06:23:49;;;;;;;21.05;10.30;;;;;;;9.29;84.34;101506.41;5086910;28;20117;-90
2023/04/07 06:26:15;;;;;;;22.17;11.05;;;;;;;9.34;84.39;101509.78;5096367;28;20185;-90
2023/04/07 06:28:40;;;;;;;23.40;11.77;;;;;;;9.30;84.09;101503.72;5087818;28;20020;-89
2023/04/07 06:31:07;;;;;;;21.88;10.90;;;;;;;9.34;84.24;101505.38;5082013;28;20032;-89
2023/04/07 06:33:32;;;;;;;23.95;10.27;;;;;;;9.43;84.10;101513.06;5076088;28;20020;-90
2023/04/07 06:35:58;;;;;;;28.90;12.32;;;;;;;9.44;83.28;101508.66;5079939;28;20124;-89
2023/04/07 06:38:23;;;;;;;25.08;11.27;;;;;;;9.45;83.90;101510.38;5087415;28;20023;-90
2023/04/07 06:40:48;;;;;;;23.30;11.30;;;;;;;9.52;84.25;101519.91;5084460;28;20030;-90
2023/04/07 06:43:13;;;;;;;24.73;11.52;;;;;;;9.53;84.10;101518.97;5083054;28;20024;-90
2023/04/07 06:45:39;;;;;;;24.15;11.48;;;;;;;9.59;83.62;101523.22;5078775;28;20440;-90
2023/04/07 06:48:04;;;;;;;25.45;11.48;;;;;;;9.56;83.64;101516.28;5097803;28;20030;-89
2023/04/07 06:50:30;;;;;;;27.83;12.27;;;;;;;9.67;83.68;101529.19;5091927;28;20051;-90
2023/04/07 06:52:55;;;;;;;26.80;11.85;;;;;;;9.68;83.82;101523.88;5085478;28;20505;-89
2023/04/07 06:55:20;;;;;;;26.67;11.02;;;;;;;9.73;83.32;101522.88;5080442;28;20036;-90
2023/04/07 06:57:45;;;;;;;26.35;12.80;;;;;;;9.70;83.16;101529.13;5091544;28;20495;-90
2023/04/07 07:00:11;;;;;;;26.92;12.25;;;;;;;9.76;82.91;101530.75;5085618;28;20024;-89
2023/04/07 07:02:36;;;;;;;23.70;10.77;;;;;;;9.80;83.01;101535.91;5077449;28;20047;-89
2023/04/07 07:05:03;;;;;;;22.20;11.05;;;;;;;9.82;82.80;101536.72;5075828;28;20039;-89
2023/04/07 07:07:29;;;;;;;23.50;12.00;;;;;;;9.86;83.53;101541.03;5081413;28;20036;-90
2023/04/07 07:09:54;;;;;;;24.40;11.70;;;;;;;9.96;82.88;101539.88;5076232;28;20028;-90
2023/04/07 07:12:19;;;;;;;22.80;11.25;;;;;;;9.99;82.19;101544.22;5080665;28;20052;-89
2023/04/07 07:14:45;;;;;;;22.38;11.55;;;;;;;9.94;82.59;101532.91;5080035;28;20486;-90
2023/04/07 07:17:11;;;;;;;22.17;10.23;;;;;;;9.94;81.80;101538.19;5080778;28;20531;-90
2023/04/07 07:19:37;;;;;;;25.83;10.57;;;;;;;9.97;81.81;101541.59;5086776;28;20104;-90
2023/04/07 07:22:03;;;;;;;21.17;9.63;;;;;;;9.98;82.12;101542.50;5074368;28;20082;-89
2023/04/07 07:24:29;;;;;;;22.17;9.02;;;;;;;10.06;81.89;101544.91;5082250;28;20027;-90
2023/04/07 07:26:56;;;;;;;21.17;10.20;;;;;;;10.15;81.72;101548.16;5079996;28;20032;-89
2023/04/07 07:29:21;;;;;;;20.58;10.18;;;;;;;10.20;81.51;101548.91;5087779;28;20064;-89
2023/04/07 07:31:46;;;;;;;14.30;8.23;;;;;;;10.32;80.62;101545.09;5085437;28;20052;-90
2023/04/07 07:34:12;;;;;;;19.30;9.82;;;;;;;10.59;81.46;101551.41;5080309;28;20039;-89
2023/04/07 07:36:37;;;;;;;16.85;7.85;;;;;;;10.96;79.87;101553.81;5083884;28;20509;-89
2023/04/07 07:39:02;;;;;;;12.50;6.32;;;;;;;11.10;76.96;101550.75;5088804;28;20024;-89
2023/04/07 07:41:28;;;;;;;11.60;5.95;;;;;;;11.02;76.46;101558.06;5088104;28;20028;-90
2023/04/07 07:43:53;;;;;;;14.73;5.85;;;;;;;11.06;76.54;101564.13;5080936;28;20031;-89
2023/04/07 07:46:18;;;;;;;10.50;5.93;;;;;;;11.03;76.66;101570.34;5081704;28;20102;-90
2023/04/07 07:48:45;;;;;;;9.07;5.35;;;;;;;10.93;76.47;101568.91;5092998;28;20038;-90
2023/04/07 07:51:10;;;;;;;14.48;5.95;;;;;;;10.91;77.13;101571.63;5082974;28;20048;-88
2023/04/07 07:53:36;;;;;;;12.98;6.30;;;;;;;10.84;76.80;101570.03;5096579;28;20059;-90
2023/04/07 07:56:01;;;;;;;8.05;5.60;;;;;;;10.84;77.09;101571.81;5087909;28;20389;-90
2023/04/07 07:58:26;;;;;;;13.07;5.05;;;;;;;10.92;76.48;101583.06;5078716;28;20039;-89
2023/04/07 08:00:52;;;;;;;6.32;3.38;;;;;;;10.95;74.14;101575.00;5092971;27;20021;-90
2023/04/07 08:03:18;;;;;;;9.15;4.18;;;;;;;10.92;74.22;101580.41;5092737;28;20028;-90
2023/04/07 08:05:44;;;;;;;7.00;3.95;;;;;;;10.83;74.36;101578.03;5086974;28;20130;-89
2023/04/07 08:08:09;;;;;;;5.40;3.88;;;;;;;10.87;75.27;101587.63;5086057;28;20036;-89
2023/04/07 08:10:35;;;;;;;18.13;4.93;;;;;;;10.91;74.84;101592.78;5098620;28;20056;-90
2023/04/07 08:13:00;;;;;;;8.80;4.10;;;;;;;10.89;74.75;101586.66;5080287;28;20444;-89
2023/04/07 08:15:26;;;;;;;6.28;4.05;;;;;;;10.96;74.73;101590.00;5082690;28;20033;-90
2023/04/07 08:17:51;;;;;;;7.80;3.85;;;;;;;11.08;74.69;101594.03;5083821;28;20031;-90
2023/04/07 08:20:16;;;;;;;6.05;3.42;;;;;;;11.16;73.64;101603.47;5092716;28;20483;-89
2023/04/07 08:22:42;;;;;;;8.32;3.70;;;;;;;11.22;73.09;101605.94;5093532;28;20130;-89
2023/04/07 08:25:07;;;;;;;4.65;3.45;;;;;;;11.20;72.79;101599.84;5096052;28;20328;-89
2023/04/07 08:27:33;;;;;;;5.78;3.60;;;;;;;11.20;72.99;101599.84;5093747;28;20031;-89
2023/04/07 08:30:01;;;;;;;7.38;3.65;;;;;;;11.25;73.12;101607.63;5082610;28;20209;-90
2023/04/07 08:32:37;;;;;;;9.32;3.30;;;;;;;11.09;72.38;101604.56;5081979;28;20026;-89
2023/04/07 08:35:02;;;;;;;7.20;3.10;;;;;;;11.08;72.93;101613.44;5078420;28;20036;-89
2023/04/07 08:37:27;;;;;;;7.40;3.53;;;;;;;11.06;72.90;101609.97;5105367;27;20024;-89
2023/04/07 08:39:53;;;;;;;10.63;3.50;;;;;;;11.07;73.11;101609.06;5079336;28;20417;-89
2023/04/07 08:42:18;;;;;;;5.43;3.40;;;;;;;11.07;73.59;101602.91;5083031;28;20025;-89
2023/04/07 08:44:49;;;;;;;9.40;3.83;;;;;;;10.89;72.95;101580.50;5077753;28;20044;-89
2023/04/07 08:47:16;;;;;;;6.57;3.90;;;;;;;10.97;73.72;101611.09;5086163;28;20028;-89
2023/04/07 08:49:43;;;;;;;8.60;4.15;;;;;;;10.87;73.26;101617.59;5075470;28;20025;-89
2023/04/07 08:52:12;;;;;;;6.68;3.70;;;;;;;10.90;74.39;101621.91;5092297;28;20079;-89
2023/04/07 08:54:37;;;;;;;10.70;5.05;;;;;;;10.96;73.42;101612.03;5081764;28;20039;-90
2023/04/07 08:57:03;;;;;;;8.80;3.97;;;;;;;11.15;72.67;101630.00;5082594;28;20020;-89
2023/04/07 08:59:32;;;;;;;6.60;2.63;;;;;;;11.23;71.47;101626.19;5082336;28;20098;-90
2023/04/07 09:01:58;;;;;;;6.82;2.65;;;;;;;11.39;72.09;101621.31;5090235;28;20028;-89
2023/04/07 09:04:24;;;;;;;2.83;2.30;;;;;;;11.58;70.84;101623.38;5088178;28;20039;-89
2023/04/07 09:06:49;;;;;;;3.95;2.42;;;;;;;11.74;70.43;101633.41;5091426;28;20035;-89
2023/04/07 09:09:15;;;;;;;6.88;2.67;;;;;;;11.72;70.77;101631.75;5083421;28;20020;-88
2023/04/07 09:11:40;;;;;;;11.65;3.45;;;;;;;11.70;69.37;101631.81;5086430;28;20039;-90
2023/04/07 09:14:06;;;;;;;4.13;2.67;;;;;;;11.75;69.54;101635.19;5083777;28;20109;-89
2023/04/07 09:16:32;;;;;;;4.97;2.38;;;;;;;11.80;69.52;101634.13;5083196;28;20025;-88
2023/04/07 09:18:58;;;;;;;4.90;2.75;;;;;;;11.86;69.21;101639.28;5097607;28;20382;-90
2023/04/07 09:21:24;;;;;;;4.03;2.67;;;;;;;11.89;69.50;101642.72;5092820;28;20536;-89
2023/04/07 09:23:49;;;;;;;7.07;2.60;;;;;;;11.82;68.38;101640.25;5086086;28;20111;-89
2023/04/07 09:26:23;;;;;;;9.10;2.58;;;;;;;11.74;70.26;101644.00;5075962;28;20024;-89
2023/04/07 09:28:53;;;;;;;5.97;3.15;;;;;;;11.72;70.56;101645.00;5107410;27;20115;-90
2023/04/07 09:31:20;;;;;;;8.68;3.00;;;;;;;11.70;70.51;101642.41;5074793;28;20503;-90
2023/04/07 09:33:46;;;;;;;4.72;3.10;;;;;;;11.82;69.79;101641.16;5090720;28;20016;-89
2023/04/07 09:36:11;;;;;;;5.68;3.20;;;;;;;11.83;69.68;101648.19;5084260;28;20459;-89
2023/04/07 09:38:39;;;;;;;7.38;2.80;;;;;;;11.78;69.40;101649.22;5081346;28;20081;-89
2023/04/07 09:41:09;;;;;;;5.65;2.55;;;;;;;11.69;69.61;101643.28;5079211;28;20027;-89
2023/04/07 09:43:40;;;;;;;7.32;2.72;;;;;;;11.62;69.89;101638.25;5085469;28;20103;-89
2023/04/07 09:46:16;;;;;;;8.45;2.80;;;;;;;11.63;70.78;101648.78;5102308;27;20123;-90
2023/04/07 09:48:43;;;;;;;6.78;2.90;;;;;;;11.61;69.90;101641.81;5087276;28;20020;-89
2023/04/07 09:51:17;;;;;;;4.78;2.65;;;;;;;11.63;68.92;101642.63;5091856;28;20032;-89
2023/04/07 09:53:49;;;;;;;7.38;2.92;;;;;;;11.68;70.26;101644.22;5084064;28;20032;-90
2023/04/07 09:56:16;;;;;;;6.85;2.78;;;;;;;11.68;69.35;101641.56;5087573;28;20376;-88
2023/04/07 09:58:44;;;;;;;8.90;3.22;;;;;;;11.72;69.86;101647.66;5081389;28;20111;-90
2023/04/07 10:01:10;;;;;;;12.27;3.88;;;;;;;11.75;69.62;101653.72;5077942;28;20134;-90
2023/04/07 10:03:36;;;;;;;8.18;2.85;;;;;;;11.86;70.05;101653.41;5075725;28;20032;-89
2023/04/07 10:06:03;;;;;;;11.40;2.90;;;;;;;11.94;69.59;101656.66;5083467;28;20029;-89
2023/04/07 10:08:31;;;;;;;5.85;2.80;;;;;;;11.89;69.31;101655.97;5074527;28;20036;-89
2023/04/07 10:10:58;;;;;;;5.97;2.60;;;;;;;11.77;69.21;101656.31;5093408;28;20040;-89
2023/04/07 10:13:24;;;;;;;6.97;2.83;;;;;;;11.66;68.99;101661.09;5093189;28;20024;-90
2023/04/07 10:15:51;;;;;;;9.98;3.05;;;;;;;11.48;70.38;101665.19;5083561;28;20028;-89
2023/04/07 10:18:19;;;;;;;4.47;2.85;;;;;;;11.34;70.01;101662.09;5085874;28;20038;-89
2023/04/07 10:20:48;;;;;;;8.80;2.90;;;;;;;11.24;70.36;101667.66;5082442;28;20426;-89
2023/04/07 10:23:27;;;;;;;8.80;2.60;;;;;;;11.22;70.19;101666.81;5082192;28;20025;-90
2023/04/07 10:25:57;;;;;;;8.02;2.70;;;;;;;11.16;69.47;101674.06;5086991;28;20529;-89
2023/04/07 10:28:24;;;;;;;9.70;2.85;;;;;;;11.16;71.05;101674.06;5086763;28;20714;-90
2023/04/07 10:30:51;;;;;;;9.43;2.88;;;;;;;11.21;70.04;101680.97;5089345;28;20301;-90
2023/04/07 10:33:17;;;;;;;6.88;2.53;;;;;;;11.12;70.02;101675.06;5091807;28;20705;-89
2023/04/07 10:36:02;;;;;;;11.27;3.63;;;;;;;11.25;70.60;101692.34;5099826;28;20479;-88
2023/04/07 10:38:28;;;;;;;11.63;3.28;;;;;;;11.29;70.45;101688.69;5098162;28;20019;-89
2023/04/07 10:40:53;;;;;;;9.65;3.85;;;;;;;11.42;69.91;101684.78;5085014;28;20391;-89
2023/04/07 10:43:40;;;;;;;5.63;2.22;;;;;;;11.59;69.89;101686.88;5084208;28;20032;-90
2023/04/07 10:46:06;;;;;;;5.90;2.40;;;;;;;11.68;69.77;101681.31;5082475;28;20380;-89
2023/04/07 10:48:35;;;;;;;5.07;2.80;;;;;;;11.93;68.88;101681.41;5078868;28;20033;-90
2023/04/07 10:51:03;;;;;;;7.13;2.65;;;;;;;12.17;67.94;101689.47;5088204;28;20161;-89
2023/04/07 10:53:29;;;;;;;7.95;3.03;;;;;;;12.23;67.67;101663.66;5088777;28;20039;-89
2023/04/07 10:55:55;;;;;;;4.38;2.53;;;;;;;12.48;66.15;101686.66;5090408;28;20383;-88
2023/04/07 10:58:31;;;;;;;6.15;2.70;;;;;;;12.61;65.75;101690.63;5083880;28;20028;-90
2023/04/07 11:00:59;;;;;;;6.00;2.42;;;;;;;12.68;65.24;101696.56;5101291;28;20115;-89
2023/04/07 11:03:25;;;;;;;8.52;2.38;;;;;;;12.64;66.58;101697.63;5090963;28;20028;-90
2023/04/07 11:05:51;;;;;;;6.18;2.72;;;;;;;12.40;66.17;101694.00;5091762;28;20341;-89
2023/04/07 11:08:44;;;;;;;12.93;3.10;;;;;;;12.23;67.07;101699.91;5094455;28;20097;-90
2023/04/07 11:11:11;;;;;;;7.88;2.60;;;;;;;12.03;66.94;101694.38;5086578;28;20052;-89
2023/04/07 11:13:47;;;;;;;6.40;2.83;;;;;;;11.86;67.30;101697.56;5093102;28;20039;-89
2023/04/07 11:16:15;;;;;;;7.28;3.05;;;;;;;11.80;66.95;101698.59;5091056;28;20074;-89
2023/04/07 11:18:41;;;;;;;13.45;3.45;;;;;;;11.86;67.49;101700.22;5082135;28;20040;-89
2023/04/07 11:21:07;;;;;;;8.63;3.03;;;;;;;11.96;67.75;101693.72;5087120;28;20081;-89
2023/04/07 11:23:40;;;;;;;10.15;2.60;;;;;;;12.10;67.38;101712.69;5084169;28;20384;-89